sensor_id;sensor_type;location;lat;lon;timestamp;temperature;humidity
71039;SHT30;58692;43.212;27.908;2023-02-13T00:02:06;1.08;69.84
71039;SHT30;58692;43.212;27.908;2023-02-13T00:04:32;1.02;69.95
71039;SHT30;58692;43.212;27.908;2023-02-13T00:06:58;1.01;70.04
71039;SHT30;58692;43.212;27.908;2023-02-13T00:09:24;0.98;70.11
71039;SHT30;58692;43.212;27.908;2023-02-13T00:11:50;0.98;70.26
71039;SHT30;58692;43.212;27.908;2023-02-13T00:14:16;0.97;70.37
71039;SHT30;58692;43.212;27.908;2023-02-13T00:16:41;0.95;70.31
71039;SHT30;58692;43.212;27.908;2023-02-13T00:19:07;0.92;70.40
71039;SHT30;58692;43.212;27.908;2023-02-13T00:21:32;0.95;70.39
71039;SHT30;58692;43.212;27.908;2023-02-13T00:23:58;0.92;70.38
71039;SHT30;58692;43.212;27.908;2023-02-13T00:26:23;0.91;70.53
71039;SHT30;58692;43.212;27.908;2023-02-13T00:28:49;0.91;70.38
71039;SHT30;58692;43.212;27.908;2023-02-13T00:31:17;0.92;70.36
71039;SHT30;58692;43.212;27.908;2023-02-13T00:33:43;0.95;70.33
71039;SHT30;58692;43.212;27.908;2023-02-13T00:36:11;0.91;70.39
71039;SHT30;58692;43.212;27.908;2023-02-13T00:38:38;0.97;70.29
71039;SHT30;58692;43.212;27.908;2023-02-13T00:41:04;0.94;70.32
71039;SHT30;58692;43.212;27.908;2023-02-13T00:43:30;0.94;70.39
71039;SHT30;58692;43.212;27.908;2023-02-13T00:45:56;0.95;70.31
71039;SHT30;58692;43.212;27.908;2023-02-13T00:48:24;0.94;70.44
71039;SHT30;58692;43.212;27.908;2023-02-13T00:50:50;0.92;70.55
71039;SHT30;58692;43.212;27.908;2023-02-13T00:53:17;0.90;70.63
71039;SHT30;58692;43.212;27.908;2023-02-13T00:55:43;0.87;70.85
71039;SHT30;58692;43.212;27.908;2023-02-13T00:58:09;0.83;70.90
71039;SHT30;58692;43.212;27.908;2023-02-13T01:00:35;0.87;70.92
71039;SHT30;58692;43.212;27.908;2023-02-13T01:03:02;0.84;70.89
71039;SHT30;58692;43.212;27.908;2023-02-13T01:05:27;0.83;71.00
71039;SHT30;58692;43.212;27.908;2023-02-13T01:07:53;0.83;71.08
71039;SHT30;58692;43.212;27.908;2023-02-13T01:10:19;0.76;71.20
71039;SHT30;58692;43.212;27.908;2023-02-13T01:12:45;0.74;71.26
71039;SHT30;58692;43.212;27.908;2023-02-13T01:15:11;0.70;71.30
71039;SHT30;58692;43.212;27.908;2023-02-13T01:17:36;0.73;71.43
71039;SHT30;58692;43.212;27.908;2023-02-13T01:20:06;0.71;71.38
71039;SHT30;58692;43.212;27.908;2023-02-13T01:22:32;0.76;71.30
71039;SHT30;58692;43.212;27.908;2023-02-13T01:24:58;0.66;71.58
71039;SHT30;58692;43.212;27.908;2023-02-13T01:27:26;0.60;71.78
71039;SHT30;58692;43.212;27.908;2023-02-13T01:29:52;0.57;71.93
71039;SHT30;58692;43.212;27.908;2023-02-13T01:32:18;0.57;72.05
71039;SHT30;58692;43.212;27.908;2023-02-13T01:34:43;0.53;72.22
71039;SHT30;58692;43.212;27.908;2023-02-13T01:37:09;0.50;72.32
71039;SHT30;58692;43.212;27.908;2023-02-13T01:39:35;0.52;72.35
71039;SHT30;58692;43.212;27.908;2023-02-13T01:42:00;0.50;72.33
71039;SHT30;58692;43.212;27.908;2023-02-13T01:44:45;0.53;72.23
71039;SHT30;58692;43.212;27.908;2023-02-13T01:47:14;0.47;72.30
71039;SHT30;58692;43.212;27.908;2023-02-13T01:49:43;0.46;72.57
71039;SHT30;58692;43.212;27.908;2023-02-13T01:52:11;0.45;72.55
71039;SHT30;58692;43.212;27.908;2023-02-13T01:54:37;0.43;72.55
71039;SHT30;58692;43.212;27.908;2023-02-13T01:57:11;0.42;72.52
71039;SHT30;58692;43.212;27.908;2023-02-13T01:59:45;0.46;72.47
71039;SHT30;58692;43.212;27.908;2023-02-13T02:02:11;0.46;72.45
71039;SHT30;58692;43.212;27.908;2023-02-13T02:04:39;0.40;72.61
71039;SHT30;58692;43.212;27.908;2023-02-13T02:07:10;0.39;72.54
71039;SHT30;58692;43.212;27.908;2023-02-13T02:09:42;0.37;72.60
71039;SHT30;58692;43.212;27.908;2023-02-13T02:12:25;0.36;72.64
71039;SHT30;58692;43.212;27.908;2023-02-13T02:14:53;0.39;72.61
71039;SHT30;58692;43.212;27.908;2023-02-13T02:17:21;0.36;72.54
71039;SHT30;58692;43.212;27.908;2023-02-13T02:20:14;0.33;72.71
71039;SHT30;58692;43.212;27.908;2023-02-13T02:34:53;0.27;72.80
71039;SHT30;58692;43.212;27.908;2023-02-13T02:37:13;0.32;72.68
71039;SHT30;58692;43.212;27.908;2023-02-13T02:44:55;0.32;72.55
71039;SHT30;58692;43.212;27.908;2023-02-13T02:47:43;0.26;72.52
71039;SHT30;58692;43.212;27.908;2023-02-13T02:50:45;0.25;72.67
71039;SHT30;58692;43.212;27.908;2023-02-13T02:56:12;0.25;72.70
71039;SHT30;58692;43.212;27.908;2023-02-13T02:58:51;0.23;72.63
71039;SHT30;58692;43.212;27.908;2023-02-13T03:01:34;0.16;72.70
71039;SHT30;58692;43.212;27.908;2023-02-13T03:04:21;0.26;72.57
71039;SHT30;58692;43.212;27.908;2023-02-13T03:07:07;0.30;72.24
71039;SHT30;58692;43.212;27.908;2023-02-13T03:09:38;0.36;72.14
71039;SHT30;58692;43.212;27.908;2023-02-13T03:12:22;0.47;71.77
71039;SHT30;58692;43.212;27.908;2023-02-13T03:15:04;0.50;71.49
71039;SHT30;58692;43.212;27.908;2023-02-13T03:17:30;0.39;71.72
71039;SHT30;58692;43.212;27.908;2023-02-13T03:23:14;0.47;71.47
71039;SHT30;58692;43.212;27.908;2023-02-13T03:26:06;0.42;71.74
71039;SHT30;58692;43.212;27.908;2023-02-13T03:28:44;0.39;71.59
71039;SHT30;58692;43.212;27.908;2023-02-13T03:31:35;0.32;71.90
71039;SHT30;58692;43.212;27.908;2023-02-13T03:34:08;0.32;71.98
71039;SHT30;58692;43.212;27.908;2023-02-13T03:36:58;0.27;72.22
71039;SHT30;58692;43.212;27.908;2023-02-13T03:40:04;0.20;72.36
71039;SHT30;58692;43.212;27.908;2023-02-13T03:42:32;0.12;72.44
71039;SHT30;58692;43.212;27.908;2023-02-13T03:45:10;0.06;72.71
71039;SHT30;58692;43.212;27.908;2023-02-13T03:47:55;-0.06;72.81
71039;SHT30;58692;43.212;27.908;2023-02-13T03:50:23;0.02;72.74
71039;SHT30;58692;43.212;27.908;2023-02-13T03:52:52;0.06;72.68
71039;SHT30;58692;43.212;27.908;2023-02-13T03:55:22;-0.09;72.85
71039;SHT30;58692;43.212;27.908;2023-02-13T03:58:10;-0.06;72.84
71039;SHT30;58692;43.212;27.908;2023-02-13T04:00:54;-0.04;72.80
71039;SHT30;58692;43.212;27.908;2023-02-13T04:06:10;-0.09;72.73
71039;SHT30;58692;43.212;27.908;2023-02-13T04:08:37;-0.23;73.09
71039;SHT30;58692;43.212;27.908;2023-02-13T04:13:58;-0.37;73.77
71039;SHT30;58692;43.212;27.908;2023-02-13T04:16:32;-0.40;73.84
71039;SHT30;58692;43.212;27.908;2023-02-13T04:19:00;-0.53;74.28
71039;SHT30;58692;43.212;27.908;2023-02-13T04:21:27;-0.46;74.27
71039;SHT30;58692;43.212;27.908;2023-02-13T04:23:56;-0.42;74.32
71039;SHT30;58692;43.212;27.908;2023-02-13T04:26:22;-0.39;74.19
71039;SHT30;58692;43.212;27.908;2023-02-13T04:28:48;-0.55;74.65
71039;SHT30;58692;43.212;27.908;2023-02-13T04:31:13;-0.62;75.03
71039;SHT30;58692;43.212;27.908;2023-02-13T04:33:39;-0.50;74.75
71039;SHT30;58692;43.212;27.908;2023-02-13T04:36:05;-0.52;74.77
71039;SHT30;58692;43.212;27.908;2023-02-13T04:38:31;-0.59;74.88
71039;SHT30;58692;43.212;27.908;2023-02-13T04:40:56;-0.72;75.17
71039;SHT30;58692;43.212;27.908;2023-02-13T04:43:22;-0.63;75.02
71039;SHT30;58692;43.212;27.908;2023-02-13T04:45:48;-0.55;74.62
71039;SHT30;58692;43.212;27.908;2023-02-13T04:48:15;-0.43;74.11
71039;SHT30;58692;43.212;27.908;2023-02-13T04:50:41;-0.48;73.84
71039;SHT30;58692;43.212;27.908;2023-02-13T04:53:06;-0.53;74.03
71039;SHT30;58692;43.212;27.908;2023-02-13T04:55:32;-0.53;73.94
71039;SHT30;58692;43.212;27.908;2023-02-13T04:57:57;-0.56;73.91
71039;SHT30;58692;43.212;27.908;2023-02-13T05:00:26;-0.56;73.81
71039;SHT30;58692;43.212;27.908;2023-02-13T05:02:52;-0.70;74.08
71039;SHT30;58692;43.212;27.908;2023-02-13T05:05:19;-0.76;74.81
71039;SHT30;58692;43.212;27.908;2023-02-13T05:07:45;-0.77;74.89
71039;SHT30;58692;43.212;27.908;2023-02-13T05:10:11;-0.67;74.66
71039;SHT30;58692;43.212;27.908;2023-02-13T05:12:37;-0.70;74.77
71039;SHT30;58692;43.212;27.908;2023-02-13T05:15:05;-0.72;74.60
71039;SHT30;58692;43.212;27.908;2023-02-13T05:17:30;-0.77;74.70
71039;SHT30;58692;43.212;27.908;2023-02-13T05:19:56;-0.88;75.16
71039;SHT30;58692;43.212;27.908;2023-02-13T05:22:23;-1.07;75.58
71039;SHT30;58692;43.212;27.908;2023-02-13T05:25:05;-1.00;75.51
71039;SHT30;58692;43.212;27.908;2023-02-13T05:27:31;-0.88;75.36
71039;SHT30;58692;43.212;27.908;2023-02-13T05:29:57;-0.83;75.16
71039;SHT30;58692;43.212;27.908;2023-02-13T05:32:25;-0.81;75.26
71039;SHT30;58692;43.212;27.908;2023-02-13T05:34:51;-0.83;75.15
71039;SHT30;58692;43.212;27.908;2023-02-13T05:37:17;-0.90;75.38
71039;SHT30;58692;43.212;27.908;2023-02-13T05:39:42;-0.84;75.35
71039;SHT30;58692;43.212;27.908;2023-02-13T05:42:08;-0.77;75.09
71039;SHT30;58692;43.212;27.908;2023-02-13T05:44:37;-0.76;75.17
71039;SHT30;58692;43.212;27.908;2023-02-13T05:47:03;-0.86;75.10
71039;SHT30;58692;43.212;27.908;2023-02-13T05:49:29;-0.73;74.88
71039;SHT30;58692;43.212;27.908;2023-02-13T05:51:54;-0.65;74.73
71039;SHT30;58692;43.212;27.908;2023-02-13T05:54:20;-0.66;74.95
71039;SHT30;58692;43.212;27.908;2023-02-13T05:56:47;-0.50;74.85
71039;SHT30;58692;43.212;27.908;2023-02-13T05:59:13;-0.50;74.67
71039;SHT30;58692;43.212;27.908;2023-02-13T06:01:38;-0.50;75.23
71039;SHT30;58692;43.212;27.908;2023-02-13T06:04:04;-0.35;74.99
71039;SHT30;58692;43.212;27.908;2023-02-13T06:06:30;-0.04;74.45
71039;SHT30;58692;43.212;27.908;2023-02-13T06:08:55;0.39;73.39
71039;SHT30;58692;43.212;27.908;2023-02-13T06:11:21;0.92;72.00
71039;SHT30;58692;43.212;27.908;2023-02-13T06:13:47;1.39;69.86
71039;SHT30;58692;43.212;27.908;2023-02-13T06:16:23;2.09;68.07
71039;SHT30;58692;43.212;27.908;2023-02-13T06:19:26;2.77;65.52
71039;SHT30;58692;43.212;27.908;2023-02-13T06:22:01;3.30;64.06
71039;SHT30;58692;43.212;27.908;2023-02-13T06:24:29;3.33;62.63
71039;SHT30;58692;43.212;27.908;2023-02-13T06:27:07;3.70;62.19
71039;SHT30;58692;43.212;27.908;2023-02-13T06:29:33;4.36;60.75
71039;SHT30;58692;43.212;27.908;2023-02-13T06:31:59;4.62;60.23
71039;SHT30;58692;43.212;27.908;2023-02-13T06:34:25;5.03;58.91
71039;SHT30;58692;43.212;27.908;2023-02-13T06:36:58;4.87;58.76
71039;SHT30;58692;43.212;27.908;2023-02-13T06:39:31;5.31;57.89
71039;SHT30;58692;43.212;27.908;2023-02-13T06:42:04;5.58;56.90
71039;SHT30;58692;43.212;27.908;2023-02-13T06:44:35;5.98;55.85
71039;SHT30;58692;43.212;27.908;2023-02-13T06:47:01;5.95;56.10
71039;SHT30;58692;43.212;27.908;2023-02-13T06:49:27;5.93;55.33
71039;SHT30;58692;43.212;27.908;2023-02-13T06:51:55;6.40;54.86
71039;SHT30;58692;43.212;27.908;2023-02-13T06:54:28;6.95;53.27
71039;SHT30;58692;43.212;27.908;2023-02-13T06:56:56;7.04;52.69
71039;SHT30;58692;43.212;27.908;2023-02-13T06:59:31;6.26;53.72
71039;SHT30;58692;43.212;27.908;2023-02-13T07:01:57;6.73;53.32
71039;SHT30;58692;43.212;27.908;2023-02-13T07:04:23;6.50;53.40
71039;SHT30;58692;43.212;27.908;2023-02-13T07:06:55;7.07;52.66
71039;SHT30;58692;43.212;27.908;2023-02-13T07:09:30;7.32;52.21
71039;SHT30;58692;43.212;27.908;2023-02-13T07:12:03;7.87;50.59
71039;SHT30;58692;43.212;27.908;2023-02-13T07:14:31;7.67;50.42
71039;SHT30;58692;43.212;27.908;2023-02-13T07:17:35;7.52;50.86
71039;SHT30;58692;43.212;27.908;2023-02-13T07:20:03;8.20;50.29
71039;SHT30;58692;43.212;27.908;2023-02-13T07:22:33;8.65;49.31
71039;SHT30;58692;43.212;27.908;2023-02-13T07:28:04;9.99;46.47
71039;SHT30;58692;43.212;27.908;2023-02-13T07:31:04;10.43;45.70
71039;SHT30;58692;43.212;27.908;2023-02-13T07:34:04;10.35;44.85
71039;SHT30;58692;43.212;27.908;2023-02-13T07:43:19;10.67;45.32
71039;SHT30;58692;43.212;27.908;2023-02-13T07:53:23;9.88;46.60
71039;SHT30;58692;43.212;27.908;2023-02-13T07:57:13;9.41;47.49
71039;SHT30;58692;43.212;27.908;2023-02-13T08:02:47;7.42;51.63
71039;SHT30;58692;43.212;27.908;2023-02-13T08:05:13;7.12;52.46
71039;SHT30;58692;43.212;27.908;2023-02-13T08:07:40;6.95;53.04
71039;SHT30;58692;43.212;27.908;2023-02-13T08:10:07;6.84;53.51
71039;SHT30;58692;43.212;27.908;2023-02-13T08:12:48;6.77;53.47
71039;SHT30;58692;43.212;27.908;2023-02-13T08:15:15;6.38;54.49
71039;SHT30;58692;43.212;27.908;2023-02-13T08:17:43;6.47;54.39
71039;SHT30;58692;43.212;27.908;2023-02-13T08:20:09;6.33;54.43
71039;SHT30;58692;43.212;27.908;2023-02-13T08:22:36;6.09;55.64
71039;SHT30;58692;43.212;27.908;2023-02-13T08:25:02;6.33;55.66
71039;SHT30;58692;43.212;27.908;2023-02-13T08:27:28;6.60;54.58
71039;SHT30;58692;43.212;27.908;2023-02-13T08:29:55;6.68;54.15
71039;SHT30;58692;43.212;27.908;2023-02-13T08:32:21;6.19;54.23
71039;SHT30;58692;43.212;27.908;2023-02-13T08:34:47;6.58;53.43
71039;SHT30;58692;43.212;27.908;2023-02-13T08:37:16;6.83;52.45
71039;SHT30;58692;43.212;27.908;2023-02-13T08:39:42;6.83;51.69
71039;SHT30;58692;43.212;27.908;2023-02-13T08:42:08;6.77;51.84
71039;SHT30;58692;43.212;27.908;2023-02-13T08:44:35;6.71;51.63
71039;SHT30;58692;43.212;27.908;2023-02-13T08:47:06;6.70;52.24
71039;SHT30;58692;43.212;27.908;2023-02-13T08:49:43;7.01;50.99
71039;SHT30;58692;43.212;27.908;2023-02-13T08:52:08;7.04;51.02
71039;SHT30;58692;43.212;27.908;2023-02-13T08:54:40;7.11;50.16
71039;SHT30;58692;43.212;27.908;2023-02-13T08:57:07;7.05;50.07
71039;SHT30;58692;43.212;27.908;2023-02-13T08:59:32;7.55;49.39
71039;SHT30;58692;43.212;27.908;2023-02-13T09:01:58;7.49;49.61
71039;SHT30;58692;43.212;27.908;2023-02-13T09:04:24;7.72;48.95
71039;SHT30;58692;43.212;27.908;2023-02-13T09:07:01;7.59;49.49
71039;SHT30;58692;43.212;27.908;2023-02-13T09:09:28;7.36;49.89
71039;SHT30;58692;43.212;27.908;2023-02-13T09:11:59;7.95;48.35
71039;SHT30;58692;43.212;27.908;2023-02-13T09:14:25;8.27;47.26
71039;SHT30;58692;43.212;27.908;2023-02-13T09:16:51;8.52;46.84
71039;SHT30;58692;43.212;27.908;2023-02-13T09:19:16;8.14;46.97
71039;SHT30;58692;43.212;27.908;2023-02-13T09:21:42;8.35;47.07
71039;SHT30;58692;43.212;27.908;2023-02-13T09:24:16;8.49;46.71
71039;SHT30;58692;43.212;27.908;2023-02-13T09:26:42;8.68;47.05
71039;SHT30;58692;43.212;27.908;2023-02-13T09:29:07;8.96;46.64
71039;SHT30;58692;43.212;27.908;2023-02-13T09:31:33;8.65;47.55
71039;SHT30;58692;43.212;27.908;2023-02-13T09:33:58;9.37;46.20
71039;SHT30;58692;43.212;27.908;2023-02-13T09:36:25;9.58;44.14
71039;SHT30;58692;43.212;27.908;2023-02-13T09:38:55;10.29;43.54
71039;SHT30;58692;43.212;27.908;2023-02-13T09:41:27;10.32;43.58
71039;SHT30;58692;43.212;27.908;2023-02-13T09:49:49;9.91;39.85
71039;SHT30;58692;43.212;27.908;2023-02-13T09:52:18;9.95;38.88
71039;SHT30;58692;43.212;27.908;2023-02-13T09:54:47;10.70;38.34
71039;SHT30;58692;43.212;27.908;2023-02-13T09:57:16;11.08;38.41
71039;SHT30;58692;43.212;27.908;2023-02-13T09:59:59;11.24;38.72
71039;SHT30;58692;43.212;27.908;2023-02-13T10:21:36;12.10;36.81
71039;SHT30;58692;43.212;27.908;2023-02-13T10:24:16;12.44;35.83
71039;SHT30;58692;43.212;27.908;2023-02-13T10:26:46;12.74;35.71
71039;SHT30;58692;43.212;27.908;2023-02-13T10:29:21;13.16;35.29
71039;SHT30;58692;43.212;27.908;2023-02-13T10:32:08;14.03;34.40
71039;SHT30;58692;43.212;27.908;2023-02-13T10:34:41;13.16;35.07
71039;SHT30;58692;43.212;27.908;2023-02-13T10:37:20;13.65;35.43
71039;SHT30;58692;43.212;27.908;2023-02-13T10:39:49;14.33;34.35
71039;SHT30;58692;43.212;27.908;2023-02-13T10:42:20;14.56;33.52
71039;SHT30;58692;43.212;27.908;2023-02-13T10:45:00;14.28;34.03
71039;SHT30;58692;43.212;27.908;2023-02-13T11:04:59;14.05;34.19
71039;SHT30;58692;43.212;27.908;2023-02-13T11:07:29;14.92;33.26
71039;SHT30;58692;43.212;27.908;2023-02-13T11:10:05;15.11;32.74
71039;SHT30;58692;43.212;27.908;2023-02-13T11:12:37;15.11;33.00
71039;SHT30;58692;43.212;27.908;2023-02-13T11:17:54;13.35;35.13
71039;SHT30;58692;43.212;27.908;2023-02-13T11:23:14;14.16;33.71
71039;SHT30;58692;43.212;27.908;2023-02-13T11:28:29;13.22;35.06
71039;SHT30;58692;43.212;27.908;2023-02-13T11:33:49;12.87;36.36
71039;SHT30;58692;43.212;27.908;2023-02-13T11:36:21;13.48;35.20
71039;SHT30;58692;43.212;27.908;2023-02-13T11:39:04;13.51;35.27
71039;SHT30;58692;43.212;27.908;2023-02-13T11:41:38;14.36;34.11
71039;SHT30;58692;43.212;27.908;2023-02-13T11:44:04;12.97;36.02
71039;SHT30;58692;43.212;27.908;2023-02-13T11:46:48;12.53;37.27
71039;SHT30;58692;43.212;27.908;2023-02-13T11:49:18;12.60;37.14
71039;SHT30;58692;43.212;27.908;2023-02-13T11:51:48;13.72;35.88
71039;SHT30;58692;43.212;27.908;2023-02-13T11:54:33;14.03;35.21
71039;SHT30;58692;43.212;27.908;2023-02-13T11:59:44;14.34;34.73
71039;SHT30;58692;43.212;27.908;2023-02-13T12:02:28;14.38;34.32
71039;SHT30;58692;43.212;27.908;2023-02-13T12:05:14;12.13;40.45
71039;SHT30;58692;43.212;27.908;2023-02-13T12:07:41;11.78;42.21
71039;SHT30;58692;43.212;27.908;2023-02-13T12:10:27;11.98;42.08
71039;SHT30;58692;43.212;27.908;2023-02-13T12:15:23;11.45;43.51
71039;SHT30;58692;43.212;27.908;2023-02-13T12:20:50;10.19;46.24
71039;SHT30;58692;43.212;27.908;2023-02-13T12:31:54;8.75;51.03
71039;SHT30;58692;43.212;27.908;2023-02-13T12:37:32;9.29;49.49
71039;SHT30;58692;43.212;27.908;2023-02-13T12:43:04;9.03;48.57
71039;SHT30;58692;43.212;27.908;2023-02-13T12:53:55;8.99;46.61
71039;SHT30;58692;43.212;27.908;2023-02-13T12:59:36;9.02;47.63
71039;SHT30;58692;43.212;27.908;2023-02-13T13:07:29;9.05;47.42
71039;SHT30;58692;43.212;27.908;2023-02-13T13:15:53;8.92;45.12
71039;SHT30;58692;43.212;27.908;2023-02-13T13:26:45;7.43;46.81
71039;SHT30;58692;43.212;27.908;2023-02-13T13:29:27;6.81;51.00
71039;SHT30;58692;43.212;27.908;2023-02-13T13:31:58;6.54;52.01
71039;SHT30;58692;43.212;27.908;2023-02-13T13:34:26;6.26;50.54
71039;SHT30;58692;43.212;27.908;2023-02-13T13:37:11;6.17;50.64
71039;SHT30;58692;43.212;27.908;2023-02-13T13:50:25;6.06;47.12
71039;SHT30;58692;43.212;27.908;2023-02-13T13:53:14;5.93;47.51
71039;SHT30;58692;43.212;27.908;2023-02-13T13:56:02;5.81;50.04
71039;SHT30;58692;43.212;27.908;2023-02-13T14:04:39;5.65;54.33
71039;SHT30;58692;43.212;27.908;2023-02-13T14:07:22;5.52;54.54
71039;SHT30;58692;43.212;27.908;2023-02-13T14:09:51;5.62;53.80
71039;SHT30;58692;43.212;27.908;2023-02-13T14:12:37;5.61;52.62
71039;SHT30;58692;43.212;27.908;2023-02-13T14:15:49;5.63;51.96
71039;SHT30;58692;43.212;27.908;2023-02-13T14:20:53;5.65;52.38
71039;SHT30;58692;43.212;27.908;2023-02-13T14:23:29;5.71;52.72
71039;SHT30;58692;43.212;27.908;2023-02-13T14:36:22;5.93;52.28
71039;SHT30;58692;43.212;27.908;2023-02-13T14:38:57;5.75;53.04
71039;SHT30;58692;43.212;27.908;2023-02-13T14:44:37;5.81;52.40
71039;SHT30;58692;43.212;27.908;2023-02-13T14:47:17;5.73;53.35
71039;SHT30;58692;43.212;27.908;2023-02-13T14:49:45;5.62;53.82
71039;SHT30;58692;43.212;27.908;2023-02-13T14:52:32;5.82;53.45
71039;SHT30;58692;43.212;27.908;2023-02-13T14:55:03;5.75;53.96
71039;SHT30;58692;43.212;27.908;2023-02-13T14:57:35;5.55;54.58
71039;SHT30;58692;43.212;27.908;2023-02-13T15:00:08;5.56;55.51
71039;SHT30;58692;43.212;27.908;2023-02-13T15:02:43;5.61;55.10
71039;SHT30;58692;43.212;27.908;2023-02-13T15:05:16;5.75;55.05
71039;SHT30;58692;43.212;27.908;2023-02-13T15:07:49;5.83;54.77
71039;SHT30;58692;43.212;27.908;2023-02-13T15:10:44;5.95;54.36
71039;SHT30;58692;43.212;27.908;2023-02-13T15:13:14;6.05;53.91
71039;SHT30;58692;43.212;27.908;2023-02-13T15:15:41;6.15;53.83
71039;SHT30;58692;43.212;27.908;2023-02-13T15:18:20;6.10;54.13
71039;SHT30;58692;43.212;27.908;2023-02-13T15:20:47;6.09;54.68
71039;SHT30;58692;43.212;27.908;2023-02-13T15:23:20;6.01;55.22
71039;SHT30;58692;43.212;27.908;2023-02-13T15:25:46;5.92;55.41
71039;SHT30;58692;43.212;27.908;2023-02-13T15:28:19;5.83;55.10
71039;SHT30;58692;43.212;27.908;2023-02-13T15:33:57;5.71;55.53
71039;SHT30;58692;43.212;27.908;2023-02-13T15:36:32;5.78;55.93
71039;SHT30;58692;43.212;27.908;2023-02-13T15:38:58;5.62;56.76
71039;SHT30;58692;43.212;27.908;2023-02-13T15:41:31;5.62;57.07
71039;SHT30;58692;43.212;27.908;2023-02-13T15:43:58;5.56;57.82
71039;SHT30;58692;43.212;27.908;2023-02-13T15:46:27;5.62;57.86
71039;SHT30;58692;43.212;27.908;2023-02-13T15:48:55;5.69;58.17
71039;SHT30;58692;43.212;27.908;2023-02-13T15:51:27;5.73;58.85
71039;SHT30;58692;43.212;27.908;2023-02-13T15:54:00;5.73;58.72
71039;SHT30;58692;43.212;27.908;2023-02-13T15:56:30;5.65;58.92
71039;SHT30;58692;43.212;27.908;2023-02-13T15:58:58;5.72;58.68
71039;SHT30;58692;43.212;27.908;2023-02-13T16:01:24;5.59;59.75
71039;SHT30;58692;43.212;27.908;2023-02-13T16:03:59;5.61;59.75
71039;SHT30;58692;43.212;27.908;2023-02-13T16:06:28;5.59;60.06
71039;SHT30;58692;43.212;27.908;2023-02-13T16:08:58;5.55;60.41
71039;SHT30;58692;43.212;27.908;2023-02-13T16:11:25;5.55;60.55
71039;SHT30;58692;43.212;27.908;2023-02-13T16:16:30;5.76;60.30
71039;SHT30;58692;43.212;27.908;2023-02-13T16:25:35;5.91;60.42
71039;SHT30;58692;43.212;27.908;2023-02-13T16:28:18;5.92;60.49
71039;SHT30;58692;43.212;27.908;2023-02-13T16:31:18;6.01;60.33
71039;SHT30;58692;43.212;27.908;2023-02-13T16:33:57;6.02;60.10
71039;SHT30;58692;43.212;27.908;2023-02-13T16:36:29;5.99;60.37
71039;SHT30;58692;43.212;27.908;2023-02-13T16:38:55;5.93;60.47
71039;SHT30;58692;43.212;27.908;2023-02-13T16:44:00;5.59;59.90
71039;SHT30;58692;43.212;27.908;2023-02-13T16:49:03;5.42;59.86
71039;SHT30;58692;43.212;27.908;2023-02-13T16:51:36;5.45;59.91
71039;SHT30;58692;43.212;27.908;2023-02-13T17:04:37;5.40;59.93
71039;SHT30;58692;43.212;27.908;2023-02-13T17:07:04;5.34;60.01
71039;SHT30;58692;43.212;27.908;2023-02-13T17:09:35;5.32;60.21
71039;SHT30;58692;43.212;27.908;2023-02-13T17:12:01;5.20;60.56
71039;SHT30;58692;43.212;27.908;2023-02-13T17:14:26;5.13;60.73
71039;SHT30;58692;43.212;27.908;2023-02-13T17:16:52;5.06;61.02
71039;SHT30;58692;43.212;27.908;2023-02-13T17:19:18;5.09;61.19
71039;SHT30;58692;43.212;27.908;2023-02-13T17:21:43;5.24;60.86
71039;SHT30;58692;43.212;27.908;2023-02-13T17:24:15;5.27;60.80
71039;SHT30;58692;43.212;27.908;2023-02-13T17:26:42;5.26;60.72
71039;SHT30;58692;43.212;27.908;2023-02-13T17:29:07;5.21;60.81
71039;SHT30;58692;43.212;27.908;2023-02-13T17:31:33;5.21;60.89
71039;SHT30;58692;43.212;27.908;2023-02-13T17:33:59;5.21;60.94
71039;SHT30;58692;43.212;27.908;2023-02-13T17:36:25;5.24;61.02
71039;SHT30;58692;43.212;27.908;2023-02-13T17:38:50;5.24;60.94
71039;SHT30;58692;43.212;27.908;2023-02-13T17:41:16;5.26;60.85
71039;SHT30;58692;43.212;27.908;2023-02-13T17:43:41;5.23;60.84
71039;SHT30;58692;43.212;27.908;2023-02-13T17:46:07;5.19;61.06
71039;SHT30;58692;43.212;27.908;2023-02-13T17:48:32;5.19;61.24
71039;SHT30;58692;43.212;27.908;2023-02-13T17:50:58;5.19;61.27
71039;SHT30;58692;43.212;27.908;2023-02-13T17:53:26;5.10;61.34
71039;SHT30;58692;43.212;27.908;2023-02-13T17:55:54;5.10;61.47
71039;SHT30;58692;43.212;27.908;2023-02-13T17:58:20;5.06;61.66
71039;SHT30;58692;43.212;27.908;2023-02-13T18:00:46;5.06;61.84
71039;SHT30;58692;43.212;27.908;2023-02-13T18:03:11;5.07;61.69
71039;SHT30;58692;43.212;27.908;2023-02-13T18:05:38;5.03;61.67
71039;SHT30;58692;43.212;27.908;2023-02-13T18:08:04;4.87;62.05
71039;SHT30;58692;43.212;27.908;2023-02-13T18:10:32;4.77;62.84
71039;SHT30;58692;43.212;27.908;2023-02-13T18:12:58;4.60;63.92
71039;SHT30;58692;43.212;27.908;2023-02-13T18:15:31;4.39;65.01
71039;SHT30;58692;43.212;27.908;2023-02-13T18:17:56;4.42;64.99
71039;SHT30;58692;43.212;27.908;2023-02-13T18:20:22;4.41;65.13
71039;SHT30;58692;43.212;27.908;2023-02-13T18:22:48;4.44;65.00
71039;SHT30;58692;43.212;27.908;2023-02-13T18:25:15;4.22;65.31
71039;SHT30;58692;43.212;27.908;2023-02-13T18:27:41;4.09;66.09
71039;SHT30;58692;43.212;27.908;2023-02-13T18:30:08;4.15;65.89
71039;SHT30;58692;43.212;27.908;2023-02-13T18:32:34;4.02;66.22
71039;SHT30;58692;43.212;27.908;2023-02-13T18:35:00;3.95;66.64
71039;SHT30;58692;43.212;27.908;2023-02-13T18:37:26;4.06;66.38
71039;SHT30;58692;43.212;27.908;2023-02-13T18:39:54;3.93;66.70
71039;SHT30;58692;43.212;27.908;2023-02-13T18:42:19;3.87;66.84
71039;SHT30;58692;43.212;27.908;2023-02-13T18:44:45;3.98;66.53
71039;SHT30;58692;43.212;27.908;2023-02-13T18:47:10;3.97;66.56
71039;SHT30;58692;43.212;27.908;2023-02-13T18:49:36;3.93;66.65
71039;SHT30;58692;43.212;27.908;2023-02-13T18:52:02;3.93;66.44
71039;SHT30;58692;43.212;27.908;2023-02-13T18:54:28;3.91;66.49
71039;SHT30;58692;43.212;27.908;2023-02-13T18:56:54;3.90;66.40
71039;SHT30;58692;43.212;27.908;2023-02-13T18:59:19;3.95;66.13
71039;SHT30;58692;43.212;27.908;2023-02-13T19:01:47;3.88;66.18
71039;SHT30;58692;43.212;27.908;2023-02-13T19:04:12;3.93;66.05
71039;SHT30;58692;43.212;27.908;2023-02-13T19:06:39;3.91;66.13
71039;SHT30;58692;43.212;27.908;2023-02-13T19:09:05;3.94;66.17
71039;SHT30;58692;43.212;27.908;2023-02-13T19:11:30;3.88;66.26
71039;SHT30;58692;43.212;27.908;2023-02-13T19:13:59;3.85;66.34
71039;SHT30;58692;43.212;27.908;2023-02-13T19:16:26;3.80;66.58
71039;SHT30;58692;43.212;27.908;2023-02-13T19:18:54;3.77;66.52
71039;SHT30;58692;43.212;27.908;2023-02-13T19:21:23;3.63;66.77
71039;SHT30;58692;43.212;27.908;2023-02-13T19:23:49;3.63;66.96
71039;SHT30;58692;43.212;27.908;2023-02-13T19:26:17;3.67;66.48
71039;SHT30;58692;43.212;27.908;2023-02-13T19:28:43;3.70;65.98